This is the latest recevied weather packets stored in our database for station/object KM6RDV. If no packets are shown the sender has not sent any weather packets the latest 10 day(s).
| Time | Temp. | Humidity | Pressure | Rain* | Wind** | Luminosity | Snow |
|---|---|---|---|---|---|---|---|
| 1777830038 | 15.56° C | 69% | 1016 hPa | 0 mm | - | 580 W/m² | - |
| 1777828836 | 15° C | 72% | 1016.1 hPa | 0 mm | - | 471 W/m² | - |
| 1777828217 | 15° C | 73% | 1016.1 hPa | 0 mm | - | 466 W/m² | - |
| 1777822817 | 13.33° C | 88% | 1016 hPa | 0 mm | - | 108 W/m² | - |
| 1777818020 | 13.33° C | 81% | 1014.9 hPa | 0 mm | - | 18 W/m² | - |
| 1777816818 | 13.33° C | 80% | 1014.9 hPa | 0 mm | - | 7 W/m² | - |
| 1777815017 | 13.33° C | 78% | 1014.5 hPa | 0 mm | - | 2 W/m² | - |
| 1777813837 | 13.33° C | 77% | 1014.2 hPa | 0 mm | - | 1 W/m² | - |
| 1777813218 | 13.33° C | 77% | 1014 hPa | 0 mm | - | 0 W/m² | - |
| 1777812019 | 13.33° C | 76% | 1013.9 hPa | 0 mm | - | 0 W/m² | - |
| 1777809625 | 13.33° C | 76% | 1014.2 hPa | 0 mm | - | 0 W/m² | - |
| 1777804246 | 13.33° C | 75% | 1014.3 hPa | 0 mm | - | 0 W/m² | - |
| 1777801818 | 13.33° C | 75% | 1014.2 hPa | 0 mm | - | 0 W/m² | - |
| 1777800017 | 13.33° C | 75% | 1014.4 hPa | 0 mm | - | 0 W/m² | - |
| 1777797619 | 13.33° C | 75% | 1014.9 hPa | 0 mm | - | 0 W/m² | - |
| 1777796417 | 13.33° C | 76% | 1015 hPa | 0 mm | - | 0 W/m² | - |
| 1777791620 | 13.33° C | 75% | 1015 hPa | 0 mm | - | 0 W/m² | - |
| 1777787440 | 13.33° C | 75% | 1015.5 hPa | 0 mm | - | 0 W/m² | - |
| 1777786820 | 13.33° C | 75% | 1015.5 hPa | 0 mm | - | 0 W/m² | - |
| 1777783217 | 13.33° C | 74% | 1015.5 hPa | 0 mm | - | 0 W/m² | - |
| 1777776045 | 13.89° C | 71% | 1014.4 hPa | 0 mm | - | 18 W/m² | - |
| 1777771821 | 15° C | 67% | 1014.7 hPa | 0 mm | - | 154 W/m² | - |
| 1777770036 | 15.56° C | 66% | 1014.7 hPa | 0 mm | - | 234 W/m² | - |
| 1777768220 | 16.11° C | 65% | 1014.7 hPa | 0 mm | - | 380 W/m² | - |
| 1777761019 | 16.67° C | 64% | 1015.7 hPa | 0 mm | - | 856 W/m² | - |
* Rain latest hour (hover to see other rain measurements)
** Current wind speed in m/s (hover to see current wind gust speed)